createdAt,value
2018-08-20T00:01:26.792Z,22.10
2018-08-20T00:03:54.869Z,22.00
2018-08-20T00:06:22.948Z,22.00
2018-08-20T00:08:51.013Z,21.90
2018-08-20T00:11:19.098Z,21.70
2018-08-20T00:13:47.178Z,21.60
2018-08-20T00:16:15.273Z,21.50
2018-08-20T00:18:43.349Z,21.30
2018-08-20T00:21:11.436Z,21.30
2018-08-20T00:23:39.504Z,21.20
2018-08-20T00:26:07.590Z,21.20
2018-08-20T00:28:35.660Z,21.20
2018-08-20T00:31:03.728Z,21.20
2018-08-20T00:33:32.013Z,21.20
2018-08-20T00:36:00.088Z,21.20
2018-08-20T00:38:28.264Z,21.30
2018-08-20T00:40:56.341Z,21.40
2018-08-20T00:43:24.416Z,21.50
2018-08-20T00:45:52.488Z,21.50
2018-08-20T00:48:20.585Z,21.60
2018-08-20T00:50:48.660Z,21.60
2018-08-20T00:53:16.752Z,21.60
2018-08-20T00:55:44.817Z,21.50
2018-08-20T00:58:12.912Z,21.50
2018-08-20T01:00:40.989Z,21.50
2018-08-20T01:03:09.073Z,21.60
2018-08-20T01:05:37.149Z,21.60
2018-08-20T01:08:05.227Z,21.70
2018-08-20T01:10:33.298Z,21.70
2018-08-20T01:13:01.381Z,21.70
2018-08-20T01:15:29.444Z,21.70
2018-08-20T01:17:57.524Z,21.70
2018-08-20T01:20:25.593Z,21.60
2018-08-20T01:22:53.675Z,21.60
2018-08-20T01:25:21.736Z,21.50
2018-08-20T01:27:50.500Z,21.50
2018-08-20T01:30:18.605Z,21.50
2018-08-20T01:32:46.677Z,21.50
2018-08-20T01:35:27.502Z,21.50
2018-08-20T01:37:55.610Z,21.50
2018-08-20T01:40:24.056Z,21.50
2018-08-20T01:42:52.128Z,21.50
2018-08-20T01:45:20.211Z,21.40
2018-08-20T01:47:48.282Z,21.30
2018-08-20T01:50:16.366Z,21.30
2018-08-20T01:52:44.461Z,21.30
2018-08-20T01:55:12.517Z,21.30
2018-08-20T01:57:40.598Z,21.30
2018-08-20T02:00:08.699Z,21.30
2018-08-20T02:02:36.816Z,21.20
2018-08-20T02:05:05.772Z,21.20
2018-08-20T02:07:33.848Z,21.10
2018-08-20T02:10:02.101Z,21.10
2018-08-20T02:12:30.183Z,21.20
2018-08-20T02:14:58.265Z,21.20
2018-08-20T02:17:26.340Z,21.20
2018-08-20T02:19:54.390Z,21.20
2018-08-20T02:22:22.474Z,21.20
2018-08-20T02:24:50.537Z,21.20
2018-08-20T02:27:18.612Z,21.20
2018-08-20T02:29:46.673Z,21.10
2018-08-20T02:32:14.745Z,21.10
2018-08-20T02:34:42.828Z,21.00
2018-08-20T02:37:10.893Z,21.00
2018-08-20T02:39:38.964Z,21.10
2018-08-20T02:42:07.050Z,21.00
2018-08-20T02:44:35.134Z,21.00
2018-08-20T02:47:03.195Z,21.00
2018-08-20T02:49:31.278Z,20.90
2018-08-20T02:51:59.340Z,20.90
2018-08-20T02:54:27.417Z,20.90
2018-08-20T02:56:55.481Z,20.80
2018-08-20T02:59:23.588Z,20.80
2018-08-20T03:01:51.666Z,20.70
2018-08-20T03:04:19.756Z,20.70
2018-08-20T03:06:47.839Z,20.60
2018-08-20T03:09:16.456Z,20.60
2018-08-20T03:11:44.533Z,20.60
2018-08-20T03:14:13.108Z,20.50
2018-08-20T03:16:41.189Z,20.40
2018-08-20T03:19:10.162Z,20.40
2018-08-20T03:21:38.231Z,20.40
2018-08-20T03:24:06.708Z,20.30
2018-08-20T03:26:34.781Z,20.40
2018-08-20T03:29:04.308Z,20.30
2018-08-20T03:31:32.408Z,20.20
2018-08-20T03:34:00.477Z,20.20
2018-08-20T03:36:28.560Z,20.10
2018-08-20T03:38:56.654Z,20.00
2018-08-20T03:41:24.729Z,20.00
2018-08-20T03:43:52.800Z,20.00
2018-08-20T03:46:20.976Z,20.00
2018-08-20T03:48:49.074Z,19.90
2018-08-20T03:51:17.149Z,19.90
2018-08-20T03:53:45.232Z,19.80
2018-08-20T03:56:13.306Z,19.80
2018-08-20T03:58:42.030Z,19.80
2018-08-20T04:01:10.092Z,19.80
2018-08-20T04:03:38.364Z,19.80
2018-08-20T04:06:06.484Z,19.80
2018-08-20T04:08:34.545Z,19.80
2018-08-20T04:11:02.625Z,19.80
2018-08-20T04:13:30.699Z,19.70
2018-08-20T04:15:58.764Z,19.60
2018-08-20T04:18:27.011Z,19.70
2018-08-20T04:20:55.080Z,19.70
2018-08-20T04:23:23.150Z,19.70
2018-08-20T04:25:51.242Z,19.80
2018-08-20T04:28:19.309Z,19.80
2018-08-20T04:30:47.782Z,19.80
2018-08-20T04:33:15.832Z,19.70
2018-08-20T04:35:43.934Z,19.70
2018-08-20T04:38:12.005Z,19.80
2018-08-20T04:40:40.093Z,19.80
2018-08-20T04:43:08.585Z,19.80
2018-08-20T04:45:36.744Z,19.80
2018-08-20T04:48:05.210Z,19.80
2018-08-20T04:50:35.637Z,19.80
2018-08-20T04:53:03.597Z,19.80
2018-08-20T04:55:31.686Z,19.70
2018-08-20T04:57:59.748Z,19.70
2018-08-20T05:00:27.829Z,19.60
2018-08-20T05:02:55.898Z,19.60
2018-08-20T05:05:23.965Z,19.50
2018-08-20T05:07:52.037Z,19.50
2018-08-20T05:10:20.125Z,19.40
2018-08-20T05:12:48.195Z,19.40
2018-08-20T05:15:16.273Z,19.40
2018-08-20T05:17:44.353Z,19.40
2018-08-20T05:20:12.441Z,19.40
2018-08-20T05:22:40.516Z,19.40
2018-08-20T05:25:08.647Z,19.40
2018-08-20T05:27:36.954Z,19.50
2018-08-20T05:30:06.479Z,19.50
2018-08-20T05:32:34.560Z,19.50
2018-08-20T05:35:02.642Z,19.50
2018-08-20T05:37:30.736Z,19.40
2018-08-20T05:39:58.825Z,19.50
2018-08-20T05:42:26.898Z,19.60
2018-08-20T05:44:55.023Z,19.70
2018-08-20T05:47:23.184Z,19.70
2018-08-20T05:49:51.245Z,19.70
2018-08-20T05:52:19.321Z,19.70
2018-08-20T05:54:47.380Z,19.80
2018-08-20T05:57:15.505Z,19.80
2018-08-20T05:59:43.584Z,19.90
2018-08-20T06:02:11.664Z,20.00
2018-08-20T06:04:39.749Z,20.00
2018-08-20T06:07:07.841Z,20.10
2018-08-20T06:09:36.033Z,20.20
2018-08-20T06:12:04.113Z,20.30
2018-08-20T06:14:32.193Z,20.30
2018-08-20T06:17:00.310Z,20.40
2018-08-20T06:19:28.420Z,20.40
2018-08-20T06:21:56.511Z,20.50
2018-08-20T06:24:24.577Z,20.50
2018-08-20T06:26:52.657Z,20.60
2018-08-20T06:29:20.737Z,20.60
2018-08-20T06:31:48.829Z,20.70
2018-08-20T06:34:16.903Z,20.80
2018-08-20T06:36:45.138Z,20.80
2018-08-20T06:39:13.210Z,20.90
2018-08-20T06:41:41.305Z,21.00
2018-08-20T06:44:09.378Z,21.00
2018-08-20T06:46:37.924Z,20.90
2018-08-20T06:49:07.008Z,21.20
2018-08-20T06:51:35.090Z,21.20
2018-08-20T06:54:03.173Z,21.30
2018-08-20T06:56:31.275Z,21.30
2018-08-20T06:58:59.357Z,21.40
2018-08-20T07:01:27.436Z,21.40
2018-08-20T07:03:55.508Z,21.40
2018-08-20T07:06:23.606Z,21.50
2018-08-20T07:08:51.690Z,21.60
2018-08-20T07:11:19.777Z,21.70
2018-08-20T07:13:47.862Z,21.80
2018-08-20T07:16:15.946Z,21.90
2018-08-20T07:18:44.027Z,22.00
2018-08-20T07:21:12.119Z,22.10
2018-08-20T07:23:40.236Z,22.20
2018-08-20T07:26:08.318Z,22.20
2018-08-20T07:28:36.390Z,22.30
2018-08-20T07:31:04.679Z,22.40
2018-08-20T07:33:32.765Z,22.50
2018-08-20T07:36:00.843Z,22.60
2018-08-20T07:38:28.922Z,22.70
2018-08-20T07:40:56.993Z,22.80
2018-08-20T07:43:25.082Z,22.90
2018-08-20T07:45:53.154Z,22.90
2018-08-20T07:48:21.255Z,23.00
2018-08-20T07:50:49.380Z,23.00
2018-08-20T07:53:17.408Z,23.10
2018-08-20T07:55:45.538Z,23.10
2018-08-20T07:58:13.569Z,23.30
2018-08-20T08:00:41.664Z,23.30
2018-08-20T08:03:09.751Z,23.40
2018-08-20T08:05:37.816Z,23.50
2018-08-20T08:08:05.917Z,23.50
2018-08-20T08:10:33.990Z,23.60
2018-08-20T08:13:02.090Z,23.70
2018-08-20T08:15:30.174Z,23.70
2018-08-20T08:17:58.278Z,23.80
2018-08-20T08:20:26.358Z,23.90
2018-08-20T08:22:54.442Z,24.00
2018-08-20T08:25:22.521Z,24.10
2018-08-20T08:27:50.628Z,24.20
2018-08-20T08:30:19.440Z,24.30
2018-08-20T08:32:47.729Z,24.40
2018-08-20T08:35:15.803Z,24.50
2018-08-20T08:37:43.881Z,24.60
2018-08-20T08:40:13.487Z,24.60
2018-08-20T08:42:41.568Z,24.70
2018-08-20T08:45:14.939Z,24.80
2018-08-20T08:47:43.485Z,24.90
2018-08-20T08:50:11.806Z,24.90
2018-08-20T08:52:39.876Z,25.00
2018-08-20T08:55:08.448Z,25.00
2018-08-20T08:57:37.246Z,25.10
2018-08-20T09:00:08.234Z,25.20
2018-08-20T09:02:36.326Z,25.30
2018-08-20T09:05:05.382Z,25.30
2018-08-20T09:07:33.459Z,25.30
2018-08-20T09:10:01.542Z,25.40
2018-08-20T09:12:29.616Z,25.50
2018-08-20T09:14:57.694Z,25.60
2018-08-20T09:17:25.769Z,25.70
2018-08-20T09:19:54.034Z,25.70
2018-08-20T09:22:22.114Z,25.80
2018-08-20T09:24:50.190Z,25.90
2018-08-20T09:27:18.270Z,26.00
2018-08-20T09:29:46.335Z,26.10
2018-08-20T09:32:14.426Z,26.20
2018-08-20T09:34:42.598Z,26.30
2018-08-20T09:37:11.181Z,26.30
2018-08-20T09:39:39.261Z,26.40
2018-08-20T09:42:07.562Z,26.50
2018-08-20T09:44:35.621Z,26.60
2018-08-20T09:47:03.716Z,26.80
2018-08-20T09:49:31.803Z,26.90
2018-08-20T09:51:59.864Z,26.90
2018-08-20T09:54:27.948Z,27.00
2018-08-20T09:56:56.053Z,27.00
2018-08-20T09:59:24.157Z,27.00
2018-08-20T10:01:52.229Z,27.10
2018-08-20T10:04:20.304Z,27.10
2018-08-20T10:06:48.365Z,27.20
2018-08-20T10:09:16.446Z,27.20
2018-08-20T10:11:44.513Z,27.20
2018-08-20T10:14:12.596Z,27.20
2018-08-20T10:16:40.674Z,27.20
2018-08-20T10:19:08.752Z,27.20
2018-08-20T10:21:36.826Z,27.20
2018-08-20T10:24:04.911Z,27.10
2018-08-20T10:26:32.988Z,27.00
2018-08-20T10:29:01.106Z,27.00
2018-08-20T10:31:29.138Z,26.90
2018-08-20T10:33:57.376Z,27.00
2018-08-20T10:36:25.452Z,27.00
2018-08-20T10:38:53.524Z,27.00
2018-08-20T10:41:21.586Z,27.00
2018-08-20T10:43:49.714Z,27.00
2018-08-20T10:46:21.050Z,27.00
2018-08-20T10:48:49.151Z,27.00
2018-08-20T10:51:17.221Z,27.00
2018-08-20T10:53:45.309Z,27.00
2018-08-20T10:56:13.411Z,27.00
2018-08-20T10:58:41.486Z,27.00
2018-08-20T11:01:09.555Z,27.00
2018-08-20T11:03:39.601Z,27.00
2018-08-20T11:06:07.693Z,27.10
2018-08-20T11:08:35.772Z,27.10
2018-08-20T11:11:03.845Z,27.10
2018-08-20T11:13:31.930Z,27.10
2018-08-20T11:15:59.997Z,27.10
2018-08-20T11:18:28.192Z,27.20
2018-08-20T11:20:56.205Z,27.20
2018-08-20T11:23:24.307Z,27.20
2018-08-20T11:25:52.385Z,27.20
2018-08-20T11:28:20.478Z,27.20
2018-08-20T11:30:48.545Z,27.20
2018-08-20T11:33:16.626Z,27.30
2018-08-20T11:35:44.697Z,27.20
2018-08-20T11:38:12.777Z,27.20
2018-08-20T11:40:40.850Z,27.20
2018-08-20T11:43:08.974Z,27.20
2018-08-20T11:45:37.036Z,27.20
2018-08-20T11:48:05.276Z,27.20
2018-08-20T11:50:33.361Z,27.20
2018-08-20T11:53:01.445Z,27.20
2018-08-20T11:55:29.534Z,27.20
2018-08-20T11:57:57.615Z,27.20
2018-08-20T12:00:25.750Z,27.20
2018-08-20T12:02:53.820Z,27.30
2018-08-20T12:05:21.906Z,27.30
2018-08-20T12:07:50.055Z,27.40
2018-08-20T12:10:18.062Z,27.50
2018-08-20T12:12:46.139Z,27.60
2018-08-20T12:15:14.213Z,27.80
2018-08-20T12:17:44.332Z,27.90
2018-08-20T12:20:12.424Z,27.90
2018-08-20T12:22:40.910Z,28.00
2018-08-20T12:25:11.081Z,28.00
2018-08-20T12:27:39.161Z,28.00
2018-08-20T12:30:08.374Z,27.90
2018-08-20T12:32:36.445Z,27.90
2018-08-20T12:35:04.749Z,27.80
2018-08-20T12:37:32.834Z,27.80
2018-08-20T12:40:01.106Z,27.70
2018-08-20T12:42:28.996Z,27.60
2018-08-20T12:44:57.072Z,27.70
2018-08-20T12:47:25.141Z,27.50
2018-08-20T12:49:53.232Z,27.50
2018-08-20T12:52:21.314Z,27.50
2018-08-20T12:54:49.454Z,27.50
2018-08-20T12:57:17.524Z,27.50
2018-08-20T12:59:45.650Z,27.50
2018-08-20T13:02:13.819Z,27.60
2018-08-20T13:04:41.971Z,27.50
2018-08-20T13:07:10.046Z,27.50
2018-08-20T13:09:38.132Z,27.50
2018-08-20T13:12:06.242Z,27.40
2018-08-20T13:14:34.333Z,27.40
2018-08-20T13:17:02.422Z,27.50
2018-08-20T13:19:30.723Z,27.50
2018-08-20T13:21:58.797Z,27.50
2018-08-20T13:24:26.873Z,28.10
2018-08-20T13:26:54.956Z,29.30
2018-08-20T13:29:23.061Z,30.70
2018-08-20T13:31:51.134Z,31.90
2018-08-20T13:34:19.225Z,32.70
2018-08-20T13:36:47.294Z,33.20
2018-08-20T13:39:15.364Z,33.50
2018-08-20T13:41:43.462Z,33.50
2018-08-20T13:44:11.549Z,33.50
2018-08-20T13:46:39.625Z,33.50
2018-08-20T13:49:07.797Z,33.50
2018-08-20T13:51:35.890Z,33.50
2018-08-20T13:54:03.965Z,33.30
2018-08-20T13:56:32.141Z,33.00
2018-08-20T13:59:00.236Z,32.70
2018-08-20T14:01:28.345Z,32.20
2018-08-20T14:03:56.870Z,31.80
2018-08-20T14:06:24.986Z,31.50
2018-08-20T14:08:53.144Z,31.10
2018-08-20T14:11:22.118Z,30.80
2018-08-20T14:13:50.396Z,30.50
2018-08-20T14:16:19.297Z,30.30
2018-08-20T14:18:47.511Z,30.20
2018-08-20T14:21:16.300Z,30.00
2018-08-20T14:23:46.102Z,29.90
2018-08-20T14:26:14.286Z,29.80
2018-08-20T14:28:42.397Z,29.70
2018-08-20T14:31:10.486Z,29.70
2018-08-20T14:33:38.565Z,29.50
2018-08-20T14:36:07.034Z,29.50
2018-08-20T14:38:35.354Z,29.50
2018-08-20T14:41:03.864Z,29.70
2018-08-20T14:43:31.938Z,29.80
2018-08-20T14:46:05.238Z,30.00
2018-08-20T14:48:33.337Z,30.20
2018-08-20T14:51:01.408Z,30.30
2018-08-20T14:53:29.542Z,30.50
2018-08-20T14:55:57.621Z,30.60
2018-08-20T14:58:25.777Z,30.70
2018-08-20T15:00:53.966Z,30.70
2018-08-20T15:03:22.030Z,30.70
2018-08-20T15:05:50.110Z,30.70
2018-08-20T15:08:18.201Z,30.70
2018-08-20T15:10:46.283Z,30.80
2018-08-20T15:13:14.346Z,30.80
2018-08-20T15:15:42.562Z,30.70
2018-08-20T15:18:10.552Z,30.60
2018-08-20T15:20:38.630Z,30.60
2018-08-20T15:23:06.732Z,30.70
2018-08-20T15:25:35.023Z,30.70
2018-08-20T15:28:03.091Z,30.70
2018-08-20T15:30:31.174Z,30.50
2018-08-20T15:32:59.383Z,30.40
2018-08-20T15:35:27.459Z,30.40
2018-08-20T15:37:55.538Z,30.50
2018-08-20T15:40:23.621Z,30.50
2018-08-20T15:42:51.706Z,30.50
2018-08-20T15:45:19.783Z,30.40
2018-08-20T15:47:47.874Z,30.30
2018-08-20T15:50:15.948Z,30.20
2018-08-20T15:52:44.046Z,30.10
2018-08-20T15:55:12.123Z,30.10
2018-08-20T15:57:40.204Z,30.00
2018-08-20T16:00:09.620Z,29.90
2018-08-20T16:02:38.558Z,29.90
2018-08-20T16:05:06.913Z,29.80
2018-08-20T16:07:34.994Z,29.80
2018-08-20T16:10:03.071Z,29.70
2018-08-20T16:12:31.149Z,29.60
2018-08-20T16:14:59.210Z,29.60
2018-08-20T16:17:27.298Z,29.60
2018-08-20T16:19:55.372Z,29.60
2018-08-20T16:22:23.445Z,29.50
2018-08-20T16:24:51.523Z,29.50
2018-08-20T16:27:19.596Z,29.50
2018-08-20T16:29:47.673Z,29.60
2018-08-20T16:32:15.910Z,29.60
2018-08-20T16:34:44.029Z,29.60
2018-08-20T16:37:12.116Z,29.60
2018-08-20T16:39:40.426Z,29.60
2018-08-20T16:42:08.790Z,29.50
2018-08-20T16:44:36.861Z,29.50
2018-08-20T16:47:04.965Z,29.40
2018-08-20T16:49:33.079Z,29.40
2018-08-20T16:52:01.271Z,29.30
2018-08-20T16:54:30.373Z,29.20
2018-08-20T16:56:58.461Z,29.10
2018-08-20T16:59:26.725Z,29.00
2018-08-20T17:01:54.913Z,29.00
2018-08-20T17:04:44.341Z,28.90
2018-08-20T17:07:12.409Z,28.80
2018-08-20T17:09:40.488Z,28.90
2018-08-20T17:12:08.590Z,29.00
2018-08-20T17:14:36.648Z,29.20
2018-08-20T17:17:04.903Z,29.20
2018-08-20T17:19:32.974Z,29.20
2018-08-20T17:22:01.668Z,29.20
2018-08-20T17:24:35.228Z,29.20
2018-08-20T17:27:03.305Z,29.10
2018-08-20T17:29:31.405Z,28.90
2018-08-20T17:32:01.241Z,28.90
2018-08-20T17:34:29.468Z,28.80
2018-08-20T17:36:57.532Z,28.80
2018-08-20T17:39:25.645Z,28.70
2018-08-20T17:41:53.713Z,28.70
2018-08-20T17:44:22.943Z,28.60
2018-08-20T17:46:51.018Z,28.50
2018-08-20T17:49:24.529Z,28.40
2018-08-20T17:51:52.632Z,28.40
2018-08-20T17:54:20.714Z,28.30
2018-08-20T17:56:48.791Z,28.20
2018-08-20T17:59:16.876Z,28.10
2018-08-20T18:01:45.067Z,28.10
2018-08-20T18:04:13.155Z,28.00
2018-08-20T18:06:49.486Z,28.00
2018-08-20T18:09:17.572Z,27.90
2018-08-20T18:11:49.833Z,27.80
2018-08-20T18:14:19.197Z,27.70
2018-08-20T18:16:47.413Z,27.70
2018-08-20T18:19:15.930Z,27.60
2018-08-20T18:21:44.050Z,27.60
2018-08-20T18:24:13.478Z,27.60
2018-08-20T18:26:45.114Z,27.50
2018-08-20T18:29:13.380Z,27.50
2018-08-20T18:31:41.430Z,27.40
2018-08-20T18:34:09.516Z,27.40
2018-08-20T18:36:37.598Z,27.30
2018-08-20T18:39:11.436Z,27.30
2018-08-20T18:41:51.348Z,27.30
2018-08-20T18:44:20.362Z,27.20
2018-08-20T18:46:49.044Z,27.10
2018-08-20T18:49:17.212Z,27.00
2018-08-20T18:51:45.280Z,27.00
2018-08-20T18:54:13.431Z,27.00
2018-08-20T18:56:44.134Z,26.90
2018-08-20T18:59:12.335Z,26.90
2018-08-20T19:01:40.409Z,26.90
2018-08-20T19:04:08.789Z,26.80
2018-08-20T19:06:37.093Z,26.80
2018-08-20T19:09:05.494Z,26.70
2018-08-20T19:11:34.505Z,26.60
2018-08-20T19:14:06.936Z,26.60
2018-08-20T19:16:37.520Z,26.60
2018-08-20T19:19:06.598Z,26.50
2018-08-20T19:21:37.654Z,26.40
2018-08-20T19:24:06.740Z,26.40
2018-08-20T19:26:34.861Z,26.30
2018-08-20T19:29:38.707Z,26.30
2018-08-20T19:32:07.661Z,26.20
2018-08-20T19:34:35.736Z,26.10
2018-08-20T19:37:04.014Z,26.10
2018-08-20T19:39:32.098Z,26.00
2018-08-20T19:42:00.198Z,26.00
2018-08-20T19:44:28.286Z,25.90
2018-08-20T19:46:56.401Z,25.90
2018-08-20T19:49:24.574Z,25.80
2018-08-20T19:51:52.658Z,25.80
2018-08-20T19:54:20.734Z,25.80
2018-08-20T19:56:48.814Z,25.70
2018-08-20T19:59:25.948Z,25.70
2018-08-20T20:01:54.346Z,25.70
2018-08-20T20:04:22.450Z,25.60
2018-08-20T20:06:50.542Z,25.60
2018-08-20T20:09:18.609Z,25.50
2018-08-20T20:11:48.262Z,25.50
2018-08-20T20:14:16.344Z,25.40
2018-08-20T20:16:49.806Z,25.40
2018-08-20T20:19:18.086Z,25.30
2018-08-20T20:21:46.176Z,25.30
2018-08-20T20:24:14.354Z,25.30
2018-08-20T20:26:42.484Z,25.30
2018-08-20T20:29:11.360Z,25.20
2018-08-20T20:31:40.817Z,25.20
2018-08-20T20:34:08.908Z,25.10
2018-08-20T20:36:37.036Z,25.10
2018-08-20T20:39:07.617Z,25.00
2018-08-20T20:41:35.701Z,25.00
2018-08-20T20:44:04.023Z,25.00
2018-08-20T20:46:32.102Z,24.90
2018-08-20T20:49:00.169Z,24.90
2018-08-20T20:51:28.250Z,24.90
2018-08-20T20:53:56.374Z,24.80
2018-08-20T20:56:24.675Z,24.80
2018-08-20T20:58:52.749Z,24.80
2018-08-20T21:01:20.829Z,24.80
2018-08-20T21:03:48.918Z,24.70
2018-08-20T21:06:16.990Z,24.70
2018-08-20T21:08:48.014Z,24.70
2018-08-20T21:11:16.889Z,24.70
2018-08-20T21:13:45.393Z,24.70
2018-08-20T21:16:14.673Z,24.70
2018-08-20T21:18:45.519Z,24.60
2018-08-20T21:21:14.618Z,24.60
2018-08-20T21:23:42.694Z,24.60
2018-08-20T21:26:11.056Z,24.50
2018-08-20T21:28:55.109Z,24.50
2018-08-20T21:31:24.501Z,24.40
2018-08-20T21:33:57.215Z,24.40
2018-08-20T21:36:25.282Z,24.30
2018-08-20T21:38:53.350Z,24.30
2018-08-20T21:41:22.864Z,24.20
2018-08-20T21:43:51.162Z,24.20
2018-08-20T21:46:19.245Z,24.10
2018-08-20T21:48:47.327Z,24.10
2018-08-20T21:51:23.201Z,24.00
2018-08-20T21:53:51.310Z,24.00
2018-08-20T21:56:19.367Z,23.90
2018-08-20T21:58:47.497Z,24.00
2018-08-20T22:01:16.616Z,24.00
2018-08-20T22:03:44.999Z,24.00
2018-08-20T22:06:13.373Z,24.00
2018-08-20T22:08:41.541Z,24.00
2018-08-20T22:11:10.326Z,24.00
2018-08-20T22:13:38.418Z,24.00
2018-08-20T22:16:18.745Z,24.10
2018-08-20T22:18:48.986Z,24.10
2018-08-20T22:21:18.060Z,24.10
2018-08-20T22:23:46.862Z,24.10
2018-08-20T22:26:18.041Z,24.10
2018-08-20T22:28:48.644Z,24.20
2018-08-20T22:31:16.846Z,24.10
2018-08-20T22:33:54.475Z,24.10
2018-08-20T22:36:22.552Z,24.10
2018-08-20T22:38:53.006Z,24.10
2018-08-20T22:41:22.093Z,24.10
2018-08-20T22:43:50.468Z,24.00
2018-08-20T22:46:19.357Z,24.10
2018-08-20T22:48:50.186Z,24.10
2018-08-20T22:51:18.981Z,24.10
2018-08-20T22:53:51.266Z,24.10
2018-08-20T22:56:20.630Z,24.00
2018-08-20T22:58:48.730Z,24.10
2018-08-20T23:01:16.808Z,24.00
2018-08-20T23:03:44.880Z,24.00
2018-08-20T23:06:12.989Z,24.00
2018-08-20T23:08:41.078Z,24.00
2018-08-20T23:11:09.186Z,24.00
2018-08-20T23:13:37.557Z,24.00
2018-08-20T23:16:05.625Z,24.00
2018-08-20T23:18:34.036Z,23.90
2018-08-20T23:21:02.139Z,23.90
2018-08-20T23:23:34.650Z,23.90
2018-08-20T23:26:06.618Z,23.90
2018-08-20T23:28:36.235Z,23.90
2018-08-20T23:31:04.310Z,23.90
2018-08-20T23:33:33.594Z,23.90
2018-08-20T23:36:01.710Z,23.90
2018-08-20T23:38:29.952Z,23.90
2018-08-20T23:40:58.613Z,23.90
2018-08-20T23:43:26.737Z,23.80
2018-08-20T23:45:54.804Z,23.80
2018-08-20T23:48:22.878Z,23.90
2018-08-20T23:50:59.140Z,23.90
2018-08-20T23:53:28.185Z,23.90
2018-08-20T23:55:56.277Z,23.90
2018-08-20T23:58:24.345Z,23.80
